Observation data for Dora on 11/09/2019      Previous  Date       Current Mesonet Observations  Soil Data  Daily Summary Page  Observations in Plain Language
KDR1 090600Z 24009KT 06/05 A303 RMK A01 T00600051  RH  096%=      5-min Rain = 0
KDR1 090605Z 24009KT 06/05 A303 RMK A01 T00580049  RH  096%=      5-min Rain = 0
KDR1 090610Z 25008KT 06/05 A303 RMK A01 T00570048  RH  095%=      5-min Rain = 0
KDR1 090615Z 25009KT 06/05 A303 RMK A01 T00560047  RH  096%=      5-min Rain = 0
KDR1 090620Z 25009KT 06/05 A303 RMK A01 T00580049  RH  096%=      5-min Rain = 0
KDR1 090625Z 26009KT 06/05 A303 RMK A01 T00580049  RH  096%=      5-min Rain = 0
KDR1 090630Z 26008KT 06/05 A303 RMK A01 T00590050  RH  096%=      5-min Rain = 0
KDR1 090635Z 26006KT 06/05 A303 RMK A01 T00590050  RH  096%=      5-min Rain = 0
KDR1 090640Z 28005KT 06/05 A303 RMK A01 T00570048  RH  096%=      5-min Rain = 0
KDR1 090645Z 30005KT 05/04 A303 RMK A01 T00510042  RH  095%=      5-min Rain = 0
KDR1 090650Z 27004KT 05/04 A303 RMK A01 T00510043  RH  096%=      5-min Rain = 0
KDR1 090655Z 26006KT 06/05 A3029 RMK A01 T00570049  RH  097%=      5-min Rain = 0
KDR1 090700Z 24008KT 06/05 A3029 RMK A01 T00590051  RH  097%=      5-min Rain = 0
KDR1 090705Z 24008KT 06/05 A3029 RMK A01 T00570049  RH  096%=      5-min Rain = 0
KDR1 090710Z 24008KT 05/05 A3029 RMK A01 T00540046  RH  096%=      5-min Rain = 0
KDR1 090715Z 24007KT 05/04 A3029 RMK A01 T00510043  RH  096%=      5-min Rain = 0
KDR1 090720Z 24008KT 05/04 A3029 RMK A01 T00520044  RH  097%=      5-min Rain = 0
KDR1 090725Z 24008KT 05/05 A3028 RMK A01 T00520045  RH  097%=      5-min Rain = 0
KDR1 090730Z 24009KT 05/04 A3028 RMK A01 T00490042  RH  097%=      5-min Rain = 0
KDR1 090735Z 24009KT 05/04 A3028 RMK A01 T00470040  RH  097%=      5-min Rain = 0
KDR1 090740Z 24008KT 05/04 A3028 RMK A01 T00480041  RH  097%=      5-min Rain = 0
KDR1 090745Z 24008KT 05/04 A3028 RMK A01 T00480042  RH  097%=      5-min Rain = 0
KDR1 090750Z 24009KT 05/04 A3028 RMK A01 T00490043  RH  098%=      5-min Rain = 0
KDR1 090755Z 24009KT 05/05 A3027 RMK A01 T00510045  RH  098%=      5-min Rain = 0
KDR1 090800Z 24009KT 05/04 A3027 RMK A01 T00510044  RH  097%=      5-min Rain = 0
KDR1 090805Z 24008KT 05/04 A3027 RMK A01 T00480041  RH  097%=      5-min Rain = 0
KDR1 090810Z 24008KT 05/04 A3027 RMK A01 T00460039  RH  097%=      5-min Rain = 0.01
KDR1 090815Z 24008KT 05/04 A3027 RMK A01 T00450038  RH  098%=      5-min Rain = 0
KDR1 090820Z 24008KT 05/04 A3027 RMK A01 T00450039  RH  098%=      5-min Rain = 0
KDR1 090825Z 24009KT 05/04 A3027 RMK A01 T00460040  RH  098%=      5-min Rain = 0
KDR1 090830Z 25009KT 05/04 A3027 RMK A01 T00470041  RH  098%=      5-min Rain = 0
KDR1 090835Z 25009KT 05/05 A3027 RMK A01 T00510045  RH  098%=      5-min Rain = 0
KDR1 090840Z 25009KT 05/05 A3027 RMK A01 T00510045  RH  098%=      5-min Rain = 0
KDR1 090845Z 25009KT 05/04 A3027 RMK A01 T00470041  RH  098%=      5-min Rain = 0
KDR1 090850Z 24009KT 04/04 A3027 RMK A01 T00440037  RH  098%=      5-min Rain = 0
KDR1 090855Z 24008KT 04/03 A3027 RMK A01 T00400034  RH  098%=      5-min Rain = 0
KDR1 090900Z 25008KT 04/04 A3027 RMK A01 T00410035  RH  098%=      5-min Rain = 0
KDR1 090905Z 25008KT 04/04 A3027 RMK A01 T00410036  RH  098%=      5-min Rain = 0
KDR1 090910Z 25008KT 04/04 A3027 RMK A01 T00430038  RH  098%=      5-min Rain = 0
KDR1 090915Z 25008KT 04/04 A3026 RMK A01 T00420037  RH  098%=      5-min Rain = 0
KDR1 090920Z 25008KT 04/04 A3026 RMK A01 T00420037  RH  098%=      5-min Rain = 0
KDR1 090925Z 26007KT 04/04 A3026 RMK A01 T00420037  RH  099%=      5-min Rain = 0
KDR1 090930Z 26006KT 05/04 A3026 RMK A01 T00450040  RH  099%=      5-min Rain = 0
KDR1 090935Z 27006KT 05/04 A3026 RMK A01 T00460042  RH  099%=      5-min Rain = 0
KDR1 090940Z 26006KT 05/04 A3026 RMK A01 T00480043  RH  099%=      5-min Rain = 0
KDR1 090945Z 27006KT 05/05 A3026 RMK A01 T00500046  RH  099%=      5-min Rain = 0
KDR1 090950Z 27004KT 05/04 A3026 RMK A01 T00470042  RH  098%=      5-min Rain = 0
KDR1 090955Z 28005KT 04/04 A3026 RMK A01 T00430038  RH  098%=      5-min Rain = 0
KDR1 091000Z 29007KT 04/04 A3026 RMK A01 T00430038  RH  098%=      5-min Rain = 0
KDR1 091005Z 30007KT 04/04 A3026 RMK A01 T00410035  RH  098%=      5-min Rain = 0
KDR1 091010Z 30006KT 04/03 A3026 RMK A01 T00350029  RH  098%=      5-min Rain = 0
KDR1 091015Z 30006KT 02/02 A3026 RMK A01 T00220016  RH  097%=      5-min Rain = 0
KDR1 091020Z 30005KT 02/01 A3026 RMK A01 T00170011  RH  098%=      5-min Rain = 0
KDR1 091025Z 31006KT 02/01 A3026 RMK A01 T00160011  RH  098%=      5-min Rain = 0
KDR1 091030Z 31006KT 01/01 A3026 RMK A01 T00140009  RH  098%=      5-min Rain = 0
KDR1 091035Z 30005KT 01/01 A3026 RMK A01 T00120008  RH  098%=      5-min Rain = 0
KDR1 091040Z 29005KT 01/01 A3026 RMK A01 T00130010  RH  099%=      5-min Rain = 0
KDR1 091045Z 30005KT 01/01 A3026 RMK A01 T00130009  RH  099%=      5-min Rain = 0
KDR1 091050Z 30006KT 01/01 A3026 RMK A01 T00090005  RH  099%=      5-min Rain = 0
KDR1 091055Z 31006KT 00/M00 A3026 RMK A01 T00021002  RH  098%=      5-min Rain = 0
KDR1 091100Z 29006KT M00/M01 A3026 RMK A01 T10011005  RH  098%=      5-min Rain = 0
KDR1 091105Z 28005KT 00/00 A3026 RMK A01 T00-000-4  RH  099%=      5-min Rain = 0
KDR1 091110Z 28005KT 01/00 A3025 RMK A01 T00050002  RH  099%=      5-min Rain = 0
KDR1 091115Z 29005KT 00/00 A3026 RMK A01 T00030000  RH  099%=      5-min Rain = 0
KDR1 091120Z 29006KT 00/M00 A3026 RMK A01 T00011002  RH  099%=      5-min Rain = 0
KDR1 091125Z 31006KT M00/M00 A3026 RMK A01 T10011004  RH  099%=      5-min Rain = 0
KDR1 091130Z 32007KT M00/M01 A3026 RMK A01 T10031006  RH  099%=      5-min Rain = 0
KDR1 091135Z 31006KT M00/M01 A3026 RMK A01 T10031006  RH  099%=      5-min Rain = 0
KDR1 091140Z 31006KT M00/M01 A3026 RMK A01 T10041006  RH  099%=      5-min Rain = 0
KDR1 091145Z 31006KT M00/M01 A3026 RMK A01 T10031005  RH  099%=      5-min Rain = 0
KDR1 091150Z 31006KT M00/M00 A3026 RMK A01 T10011004  RH  099%=      5-min Rain = 0
KDR1 091155Z 29006KT 00/M00 A3026 RMK A01 T00011001  RH  100%=      5-min Rain = 0
KDR1 091200Z 29007KT 01/00 A3026 RMK A01 T00060004  RH  100%=      5-min Rain = 0
KDR1 091205Z 28007KT 02/01 A3026 RMK A01 T00160014  RH  100%=      5-min Rain = 0
KDR1 091210Z 27007KT 02/02 A3026 RMK A01 T00220020  RH  100%=      5-min Rain = 0
KDR1 091215Z 28007KT 02/02 A3026 RMK A01 T00200018  RH  100%=      5-min Rain = 0
KDR1 091220Z 29008KT 02/02 A3026 RMK A01 T00200017  RH  100%=      5-min Rain = 0
KDR1 091225Z 29007KT 02/02 A3026 RMK A01 T00170015  RH  100%=      5-min Rain = 0
KDR1 091230Z 28006KT 02/02 A3026 RMK A01 T00180016  RH  100%=      5-min Rain = 0
KDR1 091235Z 26007KT 02/02 A3026 RMK A01 T00210019  RH  100%=      5-min Rain = 0
KDR1 091240Z 27007KT 02/02 A3026 RMK A01 T00210018  RH  100%=      5-min Rain = 0
KDR1 091245Z 27005KT 02/02 A3027 RMK A01 T00200018  RH  100%=      5-min Rain = 0
KDR1 091250Z 27004KT 02/02 A3027 RMK A01 T00210019  RH  100%=      5-min Rain = 0
KDR1 091255Z 28005KT 02/02 A3027 RMK A01 T00230021  RH  100%=      5-min Rain = 0
KDR1 091300Z 30007KT 02/02 A3027 RMK A01 T00230021  RH  100%=      5-min Rain = 0
KDR1 091305Z 32006KT 01/01 A3027 RMK A01 T00120010  RH  100%=      5-min Rain = 0
KDR1 091310Z 32007KT 01/01 A3026 RMK A01 T00060005  RH  100%=      5-min Rain = 0
KDR1 091315Z 32007KT 01/00 A3026 RMK A01 T00050003  RH  100%=      5-min Rain = 0
KDR1 091320Z 32008KT 00/00 A3026 RMK A01 T00040002  RH  100%=      5-min Rain = 0
KDR1 091325Z 32008KT 00/00 A3027 RMK A01 T00040003  RH  100%=      5-min Rain = 0
KDR1 091330Z 30007KT 01/00 A3026 RMK A01 T00050003  RH  100%=      5-min Rain = 0
KDR1 091335Z 30007KT 01/01 A3026 RMK A01 T00090008  RH  100%=      5-min Rain = 0
KDR1 091340Z 29008KT 01/01 A3027 RMK A01 T00140012  RH  100%=      5-min Rain = 0
KDR1 091345Z 29006KT 02/01 A3027 RMK A01 T00160014  RH  100%=      5-min Rain = 0
KDR1 091350Z 29005KT 02/01 A3027 RMK A01 T00160014  RH  100%=      5-min Rain = 0
KDR1 091355Z 31005KT 02/02 A3027 RMK A01 T00180016  RH  100%=      5-min Rain = 0
KDR1 091400Z 32006KT 01/01 A3027 RMK A01 T00120010  RH  100%=      5-min Rain = 0
KDR1 091405Z 32006KT 01/01 A3027 RMK A01 T00110009  RH  100%=      5-min Rain = 0
KDR1 091410Z 31005KT 01/01 A3027 RMK A01 T00130011  RH  100%=      5-min Rain = 0
KDR1 091415Z 31005KT 02/02 A3027 RMK A01 T00170015  RH  100%=      5-min Rain = 0
KDR1 091420Z 30005KT 02/02 A3027 RMK A01 T00210019  RH  100%=      5-min Rain = 0
KDR1 091425Z 29005KT 03/03 A3027 RMK A01 T00270025  RH  100%=      5-min Rain = 0
KDR1 091430Z 29005KT 03/03 A3028 RMK A01 T00320030  RH  100%=      5-min Rain = 0
KDR1 091435Z 28007KT 04/04 A3028 RMK A01 T00390037  RH  100%=      5-min Rain = 0
KDR1 091440Z 27007KT 05/04 A3028 RMK A01 T00450042  RH  100%=      5-min Rain = 0
KDR1 091445Z 27006KT 05/05 A3028 RMK A01 T00490046  RH  100%=      5-min Rain = 0
KDR1 091450Z 27006KT 06/05 A3028 RMK A01 T00550051  RH  100%=      5-min Rain = 0
KDR1 091455Z 27006KT 06/06 A3028 RMK A01 T00630057  RH  098%=      5-min Rain = 0
KDR1 091500Z 27006KT 07/05 A3028 RMK A01 T00710050  RH  088%=      5-min Rain = 0
KDR1 091505Z 27006KT 08/04 A3028 RMK A01 T00760043  RH  082%=      5-min Rain = 0
KDR1 091510Z 28007KT 08/04 A3028 RMK A01 T00800042  RH  078%=      5-min Rain = 0
KDR1 091515Z 30008KT 08/04 A3028 RMK A01 T00840041  RH  076%=      5-min Rain = 0
KDR1 091520Z 31007KT 09/04 A3028 RMK A01 T00880042  RH  074%=      5-min Rain = 0
KDR1 091525Z 30008KT 09/04 A3028 RMK A01 T00910039  RH  072%=      5-min Rain = 0
KDR1 091530Z 32007KT 09/04 A3028 RMK A01 T00940043  RH  072%=      5-min Rain = 0
KDR1 091535Z 31008KT 09/04 A3029 RMK A01 T00940043  RH  072%=      5-min Rain = 0
KDR1 091540Z 31007KT 10/05 A3029 RMK A01 T00970049  RH  073%=      5-min Rain = 0
KDR1 091545Z 31008KT 10/05 A3029 RMK A01 T00970046  RH  072%=      5-min Rain = 0
KDR1 091550Z 30007KT 10/05 A3029 RMK A01 T00990048  RH  072%=      5-min Rain = 0
KDR1 091555Z 30007KT 10/05 A3029 RMK A01 T01020047  RH  070%=      5-min Rain = 0
KDR1 091600Z 30007KT 11/05 A3029 RMK A01 T01050050  RH  070%=      5-min Rain = 0
KDR1 091605Z 31007KT 11/05 A3029 RMK A01 T01090050  RH  069%=      5-min Rain = 0
KDR1 091610Z 31008KT 11/05 A3029 RMK A01 T01110048  RH  067%=      5-min Rain = 0
KDR1 091615Z 31008KT 12/05 A3029 RMK A01 T01150048  RH  065%=      5-min Rain = 0
KDR1 091620Z 30007KT 12/05 A3029 RMK A01 T01190049  RH  064%=      5-min Rain = 0
KDR1 091625Z 31007KT 12/05 A3028 RMK A01 T01220048  RH  062%=      5-min Rain = 0
KDR1 091630Z 30007KT 12/04 A3028 RMK A01 T01240043  RH  059%=      5-min Rain = 0
KDR1 091635Z 31005KT 13/05 A3028 RMK A01 T01290047  RH  059%=      5-min Rain = 0
KDR1 091640Z 30006KT 13/05 A3028 RMK A01 T01310047  RH  058%=      5-min Rain = 0
KDR1 091645Z 30005KT 13/05 A3028 RMK A01 T01330050  RH  058%=      5-min Rain = 0
KDR1 091650Z 29005KT 14/05 A3028 RMK A01 T01380052  RH  057%=      5-min Rain = 0
KDR1 091655Z 30005KT 14/05 A3028 RMK A01 T01430052  RH  055%=      5-min Rain = 0
KDR1 091700Z 28006KT 15/04 A3028 RMK A01 T01470042  RH  050%=      5-min Rain = 0
KDR1 091705Z 29005KT 15/05 A3028 RMK A01 T01470045  RH  051%=      5-min Rain = 0
KDR1 091710Z 28005KT 15/05 A3028 RMK A01 T01520047  RH  051%=      5-min Rain = 0
KDR1 091715Z 27005KT 15/05 A3028 RMK A01 T01530052  RH  052%=      5-min Rain = 0
KDR1 091720Z 26004KT 16/05 A3027 RMK A01 T01590052  RH  050%=      5-min Rain = 0
KDR1 091725Z 27004KT 16/05 A3027 RMK A01 T01630049  RH  048%=      5-min Rain = 0
KDR1 091730Z 28005KT 16/04 A3027 RMK A01 T01640038  RH  044%=      5-min Rain = 0
KDR1 091735Z 27005KT 17/04 A3027 RMK A01 T01670035  RH  042%=      5-min Rain = 0
KDR1 091740Z 26007KT 17/04 A3027 RMK A01 T01710038  RH  042%=      5-min Rain = 0
KDR1 091745Z 26005KT 17/03 A3027 RMK A01 T01740034  RH  040%=      5-min Rain = 0
KDR1 091750Z 26007KT 18/03 A3027 RMK A01 T01760033  RH  039%=      5-min Rain = 0
KDR1 091755Z 26007KT 18/04 A3026 RMK A01 T01790036  RH  039%=      5-min Rain = 0
KDR1 091800Z 26006KT 18/03 A3026 RMK A01 T01800034  RH  038%=      5-min Rain = 0
KDR1 091805Z 25008KT 18/03 A3026 RMK A01 T01820026  RH  036%=      5-min Rain = 0
KDR1 091810Z 25009KT 18/02 A3026 RMK A01 T01830024  RH  035%=      5-min Rain = 0
KDR1 091815Z 25008G13KT 19/02 A3025 RMK A01 T01860021  RH  034%=      5-min Rain = 0
KDR1 091820Z 24009KT 19/02 A3025 RMK A01 T01890022  RH  034%=      5-min Rain = 0
KDR1 091825Z 24011KT 19/01 A3025 RMK A01 T01880008  RH  030%=      5-min Rain = 0
KDR1 091830Z 24012KT 19/M00 A3024 RMK A01 T01871001  RH  029%=      5-min Rain = 0
KDR1 091835Z 23012KT 19/00 A3024 RMK A01 T01880001  RH  029%=      5-min Rain = 0
KDR1 091840Z 25011KT 19/01 A3024 RMK A01 T01900005  RH  029%=      5-min Rain = 0
KDR1 091845Z 24012KT 19/01 A3023 RMK A01 T01910005  RH  029%=      5-min Rain = 0
KDR1 091850Z 24011KT 19/01 A3023 RMK A01 T01920006  RH  029%=      5-min Rain = 0
KDR1 091855Z 23012KT 19/00 A3023 RMK A01 T01920001  RH  028%=      5-min Rain = 0
KDR1 091900Z 23012KT 19/00 A3022 RMK A01 T01910001  RH  028%=      5-min Rain = 0
KDR1 091905Z 23012KT 19/00 A3022 RMK A01 T01930004  RH  029%=      5-min Rain = 0
KDR1 091910Z 23012KT 19/M00 A3022 RMK A01 T01911003  RH  027%=      5-min Rain = 0
KDR1 091915Z 24011G16KT 19/00 A3021 RMK A01 T01940003  RH  028%=      5-min Rain = 0
KDR1 091920Z 23011KT 19/M01 A3021 RMK A01 T01921007  RH  026%=      5-min Rain = 0
KDR1 091925Z 23011KT 19/M01 A3021 RMK A01 T01931005  RH  027%=      5-min Rain = 0
KDR1 091930Z 24012KT 19/M01 A3021 RMK A01 T01931009  RH  026%=      5-min Rain = 0
KDR1 091935Z 24012KT 19/M01 A302 RMK A01 T01941011  RH  025%=      5-min Rain = 0
KDR1 091940Z 24010KT 20/M01 A302 RMK A01 T01951006  RH  026%=      5-min Rain = 0
KDR1 091945Z 24012KT 20/M01 A302 RMK A01 T01951009  RH  025%=      5-min Rain = 0
KDR1 091950Z 23010KT 20/M01 A302 RMK A01 T01961009  RH  025%=      5-min Rain = 0
KDR1 091955Z 24009G15KT 20/M00 A3019 RMK A01 T02011004  RH  025%=      5-min Rain = 0
KDR1 092000Z 25010KT 20/M01 A3019 RMK A01 T01971006  RH  026%=      5-min Rain = 0
KDR1 092005Z 24011KT 20/M00 A3019 RMK A01 T01971003  RH  026%=      5-min Rain = 0
KDR1 092010Z 24010KT 20/M01 A3019 RMK A01 T01981005  RH  026%=      5-min Rain = 0
KDR1 092015Z 24011KT 20/M01 A3018 RMK A01 T01971005  RH  026%=      5-min Rain = 0
KDR1 092020Z 25011G16KT 20/M01 A3018 RMK A01 T01961009  RH  025%=      5-min Rain = 0
KDR1 092025Z 24011G16KT 20/M01 A3018 RMK A01 T01971007  RH  026%=      5-min Rain = 0
KDR1 092030Z 25011KT 20/M01 A3018 RMK A01 T01961010  RH  025%=      5-min Rain = 0
KDR1 092035Z 25011KT 20/M01 A3018 RMK A01 T01971007  RH  026%=      5-min Rain = 0
KDR1 092040Z 25012G17KT 20/M01 A3018 RMK A01 T01981010  RH  025%=      5-min Rain = 0
KDR1 092045Z 24009G15KT 20/M01 A3018 RMK A01 T01971010  RH  025%=      5-min Rain = 0
KDR1 092050Z 23010KT 20/M01 A3017 RMK A01 T02001008  RH  025%=      5-min Rain = 0
KDR1 092055Z 24009G14KT 20/M01 A3018 RMK A01 T01981010  RH  025%=      5-min Rain = 0
KDR1 092100Z 23010G16KT 20/M01 A3017 RMK A01 T02001011  RH  024%=      5-min Rain = 0
KDR1 092105Z 24012KT 20/M01 A3017 RMK A01 T01981013  RH  024%=      5-min Rain = 0
KDR1 092110Z 25009G14KT 20/M01 A3017 RMK A01 T02001009  RH  025%=      5-min Rain = 0
KDR1 092115Z 24011KT 20/M01 A3017 RMK A01 T01971008  RH  025%=      5-min Rain = 0
KDR1 092120Z 23009G14KT 20/M01 A3017 RMK A01 T01981009  RH  025%=      5-min Rain = 0
KDR1 092125Z 23009KT 20/M01 A3017 RMK A01 T01981012  RH  024%=      5-min Rain = 0
KDR1 092130Z 24010KT 20/M01 A3017 RMK A01 T01981011  RH  025%=      5-min Rain = 0
KDR1 092135Z 24011KT 20/M01 A3016 RMK A01 T01961012  RH  025%=      5-min Rain = 0
KDR1 092140Z 23009KT 20/M01 A3016 RMK A01 T01981009  RH  025%=      5-min Rain = 0
KDR1 092145Z 23010G15KT 20/M01 A3016 RMK A01 T01961010  RH  025%=      5-min Rain = 0
KDR1 092150Z 23010KT 19/M01 A3016 RMK A01 T01931009  RH  026%=      5-min Rain = 0
KDR1 092155Z 23011KT 19/M01 A3016 RMK A01 T01911007  RH  027%=      5-min Rain = 0
KDR1 092200Z 23010KT 19/M01 A3016 RMK A01 T01931007  RH  026%=      5-min Rain = 0
KDR1 092205Z 24010KT 19/M01 A3016 RMK A01 T01921005  RH  027%=      5-min Rain = 0
KDR1 092210Z 24010KT 19/M01 A3016 RMK A01 T01911007  RH  027%=      5-min Rain = 0
KDR1 092215Z 23009KT 19/M01 A3016 RMK A01 T01911006  RH  027%=      5-min Rain = 0
KDR1 092220Z 23009KT 19/M01 A3015 RMK A01 T01901008  RH  026%=      5-min Rain = 0
KDR1 092225Z 23009KT 19/M01 A3015 RMK A01 T01891012  RH  026%=      5-min Rain = 0
KDR1 092230Z 24011KT 19/M01 A3015 RMK A01 T01861014  RH  026%=      5-min Rain = 0
KDR1 092235Z 23009KT 18/M01 A3015 RMK A01 T01841012  RH  027%=      5-min Rain = 0
KDR1 092240Z 23010KT 18/M00 A3015 RMK A01 T01831004  RH  029%=      5-min Rain = 0
KDR1 092245Z 24010KT 18/M00 A3015 RMK A01 T01801001  RH  030%=      5-min Rain = 0
KDR1 092250Z 24009KT 17/00 A3015 RMK A01 T01740001  RH  031%=      5-min Rain = 0
KDR1 092255Z 24009KT 17/00 A3015 RMK A01 T01700003  RH  033%=      5-min Rain = 0
KDR1 092300Z 24008KT 17/01 A3015 RMK A01 T01680010  RH  035%=      5-min Rain = 0
KDR1 092305Z 24008KT 17/02 A3015 RMK A01 T01670015  RH  036%=      5-min Rain = 0
KDR1 092310Z 24007KT 17/02 A3015 RMK A01 T01650019  RH  038%=      5-min Rain = 0
KDR1 092315Z 24008KT 16/02 A3015 RMK A01 T01610019  RH  039%=      5-min Rain = 0
KDR1 092320Z 24007KT 16/02 A3015 RMK A01 T01590020  RH  040%=      5-min Rain = 0
KDR1 092325Z 24007KT 16/02 A3015 RMK A01 T01580021  RH  040%=      5-min Rain = 0
KDR1 092330Z 23007KT 15/02 A3015 RMK A01 T01510024  RH  043%=      5-min Rain = 0
KDR1 092335Z 23007KT 15/02 A3015 RMK A01 T01480021  RH  043%=      5-min Rain = 0
KDR1 092340Z 23008KT 14/02 A3015 RMK A01 T01430021  RH  044%=      5-min Rain = 0
KDR1 092345Z 23008KT 14/02 A3015 RMK A01 T01400018  RH  044%=      5-min Rain = 0
KDR1 092350Z 23007KT 14/02 A3015 RMK A01 T01370019  RH  045%=      5-min Rain = 0
KDR1 092355Z 22008KT 13/02 A3014 RMK A01 T01330019  RH  046%=      5-min Rain = 0
KDR1 100000Z 22009KT 13/02 A3014 RMK A01 T01300018  RH  047%=      5-min Rain = 0
KDR1 100005Z 22010KT 13/02 A3014 RMK A01 T01320015  RH  046%=      5-min Rain = 0
KDR1 100010Z 22009KT 14/01 A3014 RMK A01 T01350012  RH  044%=      5-min Rain = 0
KDR1 100015Z 22009KT 13/02 A3014 RMK A01 T01280016  RH  047%=      5-min Rain = 0
KDR1 100020Z 22007KT 12/02 A3014 RMK A01 T01190019  RH  051%=      5-min Rain = 0
KDR1 100025Z 22006KT 11/02 A3014 RMK A01 T01110019  RH  054%=      5-min Rain = 0
KDR1 100030Z 21006KT 12/02 A3015 RMK A01 T01150015  RH  051%=      5-min Rain = 0
KDR1 100035Z 21006KT 12/01 A3014 RMK A01 T01170014  RH  050%=      5-min Rain = 0
KDR1 100040Z 21007KT 12/02 A3014 RMK A01 T01150016  RH  051%=      5-min Rain = 0
KDR1 100045Z 21007KT 11/02 A3014 RMK A01 T01090017  RH  054%=      5-min Rain = 0
KDR1 100050Z 21009KT 11/02 A3014 RMK A01 T01080017  RH  054%=      5-min Rain = 0
KDR1 100055Z 21008KT 11/02 A3014 RMK A01 T01090017  RH  054%=      5-min Rain = 0
KDR1 100100Z 21009KT 11/02 A3014 RMK A01 T01140015  RH  051%=      5-min Rain = 0
KDR1 100105Z 21008KT 11/02 A3014 RMK A01 T01130015  RH  052%=      5-min Rain = 0
KDR1 100110Z 21009KT 11/02 A3014 RMK A01 T01130015  RH  051%=      5-min Rain = 0
KDR1 100115Z 21010KT 11/02 A3015 RMK A01 T01140015  RH  051%=      5-min Rain = 0
KDR1 100120Z 21010KT 12/02 A3015 RMK A01 T01150015  RH  051%=      5-min Rain = 0
KDR1 100125Z 21011KT 12/02 A3015 RMK A01 T01160016  RH  051%=      5-min Rain = 0
KDR1 100130Z 21011KT 11/02 A3015 RMK A01 T01130017  RH  053%=      5-min Rain = 0
KDR1 100135Z 22012KT 11/02 A3015 RMK A01 T01120018  RH  053%=      5-min Rain = 0
KDR1 100140Z 22011KT 11/02 A3015 RMK A01 T01060020  RH  056%=      5-min Rain = 0
KDR1 100145Z 21012KT 11/02 A3015 RMK A01 T01060023  RH  057%=      5-min Rain = 0
KDR1 100150Z 21011KT 11/02 A3015 RMK A01 T01080024  RH  057%=      5-min Rain = 0
KDR1 100155Z 21011KT 10/03 A3015 RMK A01 T01040025  RH  059%=      5-min Rain = 0
KDR1 100200Z 21012KT 10/03 A3015 RMK A01 T01040027  RH  060%=      5-min Rain = 0
KDR1 100205Z 21011KT 11/03 A3015 RMK A01 T01070027  RH  059%=      5-min Rain = 0
KDR1 100210Z 21012KT 11/03 A3015 RMK A01 T01070026  RH  058%=      5-min Rain = 0
KDR1 100215Z 22014KT 11/03 A3014 RMK A01 T01070025  RH  058%=      5-min Rain = 0
KDR1 100220Z 22014KT 11/03 A3014 RMK A01 T01050025  RH  059%=      5-min Rain = 0
KDR1 100225Z 22012KT 10/03 A3014 RMK A01 T01000026  RH  061%=      5-min Rain = 0
KDR1 100230Z 22012KT 10/03 A3014 RMK A01 T01020025  RH  060%=      5-min Rain = 0
KDR1 100235Z 22013KT 10/03 A3014 RMK A01 T01020025  RH  060%=      5-min Rain = 0
KDR1 100240Z 22013KT 10/03 A3014 RMK A01 T01020025  RH  060%=      5-min Rain = 0
KDR1 100245Z 22012KT 10/03 A3014 RMK A01 T01000025  RH  061%=      5-min Rain = 0
KDR1 100250Z 22012KT 10/03 A3014 RMK A01 T00980026  RH  062%=      5-min Rain = 0
KDR1 100255Z 22011KT 10/03 A3014 RMK A01 T00970027  RH  063%=      5-min Rain = 0
KDR1 100300Z 22012KT 10/03 A3014 RMK A01 T00970027  RH  063%=      5-min Rain = 0
KDR1 100305Z 22011KT 10/03 A3014 RMK A01 T00950027  RH  064%=      5-min Rain = 0
KDR1 100310Z 22011KT 09/03 A3014 RMK A01 T00930028  RH  065%=      5-min Rain = 0
KDR1 100315Z 22011KT 09/03 A3014 RMK A01 T00910028  RH  066%=      5-min Rain = 0
KDR1 100320Z 22010KT 09/03 A3013 RMK A01 T00900028  RH  066%=      5-min Rain = 0
KDR1 100325Z 22011KT 09/03 A3013 RMK A01 T00890028  RH  067%=      5-min Rain = 0
KDR1 100330Z 22011KT 09/03 A3014 RMK A01 T00880028  RH  067%=      5-min Rain = 0
KDR1 100335Z 22011KT 09/03 A3014 RMK A01 T00860028  RH  068%=      5-min Rain = 0
KDR1 100340Z 22011KT 09/03 A3013 RMK A01 T00860028  RH  068%=      5-min Rain = 0
KDR1 100345Z 22011KT 09/03 A3014 RMK A01 T00850028  RH  069%=      5-min Rain = 0
KDR1 100350Z 21011KT 09/03 A3014 RMK A01 T00870028  RH  068%=      5-min Rain = 0
KDR1 100355Z 22012KT 09/03 A3014 RMK A01 T00890029  RH  067%=      5-min Rain = 0
KDR1 100400Z 22012KT 09/03 A3013 RMK A01 T00870029  RH  068%=      5-min Rain = 0
KDR1 100405Z 22012KT 09/03 A3013 RMK A01 T00860030  RH  069%=      5-min Rain = 0
KDR1 100410Z 22012KT 09/03 A3013 RMK A01 T00870031  RH  069%=      5-min Rain = 0
KDR1 100415Z 22011KT 09/03 A3013 RMK A01 T00850031  RH  070%=      5-min Rain = 0
KDR1 100420Z 22011KT 08/03 A3013 RMK A01 T00830031  RH  071%=      5-min Rain = 0
KDR1 100425Z 22010KT 08/03 A3013 RMK A01 T00810031  RH  072%=      5-min Rain = 0
KDR1 100430Z 22009KT 08/03 A3013 RMK A01 T00800030  RH  072%=      5-min Rain = 0
KDR1 100435Z 22009KT 08/03 A3013 RMK A01 T00790030  RH  072%=      5-min Rain = 0
KDR1 100440Z 23009KT 08/03 A3013 RMK A01 T00800029  RH  072%=      5-min Rain = 0
KDR1 100445Z 23010KT 08/03 A3013 RMK A01 T00820030  RH  071%=      5-min Rain = 0
KDR1 100450Z 22011KT 09/03 A3013 RMK A01 T00850030  RH  070%=      5-min Rain = 0
KDR1 100455Z 22010KT 08/03 A3013 RMK A01 T00840030  RH  070%=      5-min Rain = 0
KDR1 100500Z 23011KT 08/03 A3013 RMK A01 T00810029  RH  071%=      5-min Rain = 0
KDR1 100505Z 22011KT 08/03 A3013 RMK A01 T00780030  RH  073%=      5-min Rain = 0
KDR1 100510Z 23011KT 08/03 A3013 RMK A01 T00760031  RH  075%=      5-min Rain = 0
KDR1 100515Z 23010KT 08/03 A3012 RMK A01 T00750033  RH  076%=      5-min Rain = 0
KDR1 100520Z 23011KT 08/04 A3012 RMK A01 T00790037  RH  076%=      5-min Rain = 0
KDR1 100525Z 23013KT 08/04 A3012 RMK A01 T00840040  RH  076%=      5-min Rain = 0
KDR1 100530Z 23013KT 09/04 A3012 RMK A01 T00860042  RH  076%=      5-min Rain = 0
KDR1 100535Z 23013KT 09/04 A3012 RMK A01 T00860043  RH  076%=      5-min Rain = 0
KDR1 100540Z 23014KT 09/05 A3012 RMK A01 T00860045  RH  077%=      5-min Rain = 0
KDR1 100545Z 23014KT 09/05 A3012 RMK A01 T00870046  RH  077%=      5-min Rain = 0
KDR1 100550Z 23014KT 09/05 A3012 RMK A01 T00870046  RH  077%=      5-min Rain = 0
KDR1 100555Z 23012KT 09/05 A3012 RMK A01 T00860046  RH  078%=      5-min Rain = 0

Page generated in 0.0092 seconds.